sensor_id;sensor_type;location;lat;lon;timestamp;temperature;humidity
12276;DHT22;6200;48.144;11.424;2023-03-01T00:01:59;2.80;99.90
12276;DHT22;6200;48.144;11.424;2023-03-01T00:04:24;2.80;99.90
12276;DHT22;6200;48.144;11.424;2023-03-01T00:06:50;2.80;99.90
12276;DHT22;6200;48.144;11.424;2023-03-01T00:09:16;2.80;99.90
12276;DHT22;6200;48.144;11.424;2023-03-01T00:11:42;2.80;99.90
12276;DHT22;6200;48.144;11.424;2023-03-01T00:14:08;2.80;99.90
12276;DHT22;6200;48.144;11.424;2023-03-01T00:16:39;2.80;99.90
12276;DHT22;6200;48.144;11.424;2023-03-01T00:19:06;1.70;99.90
12276;DHT22;6200;48.144;11.424;2023-03-01T00:21:31;2.80;99.90
12276;DHT22;6200;48.144;11.424;2023-03-01T00:23:57;2.80;99.90
12276;DHT22;6200;48.144;11.424;2023-03-01T00:26:24;2.80;99.90
12276;DHT22;6200;48.144;11.424;2023-03-01T00:28:51;2.80;99.90
12276;DHT22;6200;48.144;11.424;2023-03-01T00:31:22;2.70;99.90
12276;DHT22;6200;48.144;11.424;2023-03-01T00:33:48;2.70;99.90
12276;DHT22;6200;48.144;11.424;2023-03-01T00:36:15;2.70;99.90
12276;DHT22;6200;48.144;11.424;2023-03-01T00:38:45;2.70;99.90
12276;DHT22;6200;48.144;11.424;2023-03-01T00:41:13;2.70;99.90
12276;DHT22;6200;48.144;11.424;2023-03-01T00:43:40;2.80;99.90
12276;DHT22;6200;48.144;11.424;2023-03-01T00:46:20;2.80;99.90
12276;DHT22;6200;48.144;11.424;2023-03-01T00:48:46;2.80;99.90
12276;DHT22;6200;48.144;11.424;2023-03-01T00:51:14;2.80;99.90
12276;DHT22;6200;48.144;11.424;2023-03-01T00:53:40;2.80;99.90
12276;DHT22;6200;48.144;11.424;2023-03-01T00:56:07;2.80;99.90
12276;DHT22;6200;48.144;11.424;2023-03-01T00:58:33;2.80;99.90
12276;DHT22;6200;48.144;11.424;2023-03-01T01:00:59;2.80;99.90
12276;DHT22;6200;48.144;11.424;2023-03-01T01:03:25;2.70;99.90
12276;DHT22;6200;48.144;11.424;2023-03-01T01:05:52;2.70;99.90
12276;DHT22;6200;48.144;11.424;2023-03-01T01:08:18;2.70;99.90
12276;DHT22;6200;48.144;11.424;2023-03-01T01:10:45;2.70;99.90
12276;DHT22;6200;48.144;11.424;2023-03-01T01:13:10;2.70;99.90
12276;DHT22;6200;48.144;11.424;2023-03-01T01:15:36;2.70;99.90
12276;DHT22;6200;48.144;11.424;2023-03-01T01:18:02;2.70;99.90
12276;DHT22;6200;48.144;11.424;2023-03-01T01:20:28;2.70;99.90
12276;DHT22;6200;48.144;11.424;2023-03-01T01:22:53;2.70;99.90
12276;DHT22;6200;48.144;11.424;2023-03-01T01:25:19;2.60;99.90
12276;DHT22;6200;48.144;11.424;2023-03-01T01:27:45;2.60;99.90
12276;DHT22;6200;48.144;11.424;2023-03-01T01:30:11;2.60;99.90
12276;DHT22;6200;48.144;11.424;2023-03-01T01:32:36;2.60;99.90
12276;DHT22;6200;48.144;11.424;2023-03-01T01:35:02;2.60;99.90
12276;DHT22;6200;48.144;11.424;2023-03-01T01:37:27;2.60;99.90
12276;DHT22;6200;48.144;11.424;2023-03-01T01:39:57;2.60;99.90
12276;DHT22;6200;48.144;11.424;2023-03-01T01:42:24;2.50;99.90
12276;DHT22;6200;48.144;11.424;2023-03-01T01:45:29;4.00;99.90
12276;DHT22;6200;48.144;11.424;2023-03-01T01:48:03;2.50;99.90
12276;DHT22;6200;48.144;11.424;2023-03-01T01:50:30;2.50;99.90
12276;DHT22;6200;48.144;11.424;2023-03-01T01:53:09;2.50;99.90
12276;DHT22;6200;48.144;11.424;2023-03-01T01:55:37;2.50;99.90
12276;DHT22;6200;48.144;11.424;2023-03-01T01:58:06;2.50;99.90
12276;DHT22;6200;48.144;11.424;2023-03-01T02:00:33;2.60;99.90
12276;DHT22;6200;48.144;11.424;2023-03-01T02:03:12;2.60;99.90
12276;DHT22;6200;48.144;11.424;2023-03-01T02:08:11;2.60;99.90
12276;DHT22;6200;48.144;11.424;2023-03-01T02:10:37;2.60;99.90
12276;DHT22;6200;48.144;11.424;2023-03-01T02:13:03;2.60;99.90
12276;DHT22;6200;48.144;11.424;2023-03-01T02:15:36;2.60;99.90
12276;DHT22;6200;48.144;11.424;2023-03-01T02:18:03;2.50;99.90
12276;DHT22;6200;48.144;11.424;2023-03-01T02:23:10;2.50;99.90
12276;DHT22;6200;48.144;11.424;2023-03-01T02:25:40;2.50;99.90
12276;DHT22;6200;48.144;11.424;2023-03-01T02:30:41;2.50;99.90
12276;DHT22;6200;48.144;11.424;2023-03-01T02:33:27;2.50;99.90
12276;DHT22;6200;48.144;11.424;2023-03-01T02:35:54;2.60;99.90
12276;DHT22;6200;48.144;11.424;2023-03-01T02:38:21;2.50;99.90
12276;DHT22;6200;48.144;11.424;2023-03-01T02:40:49;2.40;99.90
12276;DHT22;6200;48.144;11.424;2023-03-01T02:43:16;2.40;99.90
12276;DHT22;6200;48.144;11.424;2023-03-01T02:45:50;2.40;99.90
12276;DHT22;6200;48.144;11.424;2023-03-01T02:48:17;2.40;99.90
12276;DHT22;6200;48.144;11.424;2023-03-01T02:51:33;2.40;99.90
12276;DHT22;6200;48.144;11.424;2023-03-01T02:54:00;1.60;99.90
12276;DHT22;6200;48.144;11.424;2023-03-01T02:56:29;2.50;99.90
12276;DHT22;6200;48.144;11.424;2023-03-01T02:58:54;2.40;99.90
12276;DHT22;6200;48.144;11.424;2023-03-01T03:01:26;2.40;99.90
12276;DHT22;6200;48.144;11.424;2023-03-01T03:04:09;2.40;99.90
12276;DHT22;6200;48.144;11.424;2023-03-01T03:06:35;2.40;99.90
12276;DHT22;6200;48.144;11.424;2023-03-01T03:09:01;2.40;99.90
12276;DHT22;6200;48.144;11.424;2023-03-01T03:11:27;2.50;99.90
12276;DHT22;6200;48.144;11.424;2023-03-01T03:13:53;2.40;99.90
12276;DHT22;6200;48.144;11.424;2023-03-01T03:16:19;2.40;99.90
12276;DHT22;6200;48.144;11.424;2023-03-01T03:18:45;2.40;99.90
12276;DHT22;6200;48.144;11.424;2023-03-01T03:21:12;2.40;99.90
12276;DHT22;6200;48.144;11.424;2023-03-01T03:23:38;2.40;99.90
12276;DHT22;6200;48.144;11.424;2023-03-01T03:26:05;2.40;99.90
12276;DHT22;6200;48.144;11.424;2023-03-01T03:28:32;2.30;99.90
12276;DHT22;6200;48.144;11.424;2023-03-01T03:30:58;2.40;99.90
12276;DHT22;6200;48.144;11.424;2023-03-01T03:33:24;2.50;99.90
12276;DHT22;6200;48.144;11.424;2023-03-01T03:35:50;2.40;99.90
12276;DHT22;6200;48.144;11.424;2023-03-01T03:38:18;2.40;99.90
12276;DHT22;6200;48.144;11.424;2023-03-01T03:40:46;2.30;99.90
12276;DHT22;6200;48.144;11.424;2023-03-01T03:43:15;2.30;99.90
12276;DHT22;6200;48.144;11.424;2023-03-01T03:45:41;2.40;99.90
12276;DHT22;6200;48.144;11.424;2023-03-01T03:48:08;2.30;99.90
12276;DHT22;6200;48.144;11.424;2023-03-01T03:50:34;2.30;99.90
12276;DHT22;6200;48.144;11.424;2023-03-01T03:53:01;2.20;99.90
12276;DHT22;6200;48.144;11.424;2023-03-01T03:55:28;2.20;99.90
12276;DHT22;6200;48.144;11.424;2023-03-01T03:57:57;2.20;99.90
12276;DHT22;6200;48.144;11.424;2023-03-01T04:00:24;2.20;99.90
12276;DHT22;6200;48.144;11.424;2023-03-01T04:02:50;2.20;99.90
12276;DHT22;6200;48.144;11.424;2023-03-01T04:05:17;2.20;99.90
12276;DHT22;6200;48.144;11.424;2023-03-01T04:07:44;2.10;99.90
12276;DHT22;6200;48.144;11.424;2023-03-01T04:10:12;2.20;99.90
12276;DHT22;6200;48.144;11.424;2023-03-01T04:12:38;2.20;99.90
12276;DHT22;6200;48.144;11.424;2023-03-01T04:15:06;2.20;99.90
12276;DHT22;6200;48.144;11.424;2023-03-01T04:17:42;2.20;99.90
12276;DHT22;6200;48.144;11.424;2023-03-01T04:20:14;2.20;99.90
12276;DHT22;6200;48.144;11.424;2023-03-01T04:22:43;2.20;99.90
12276;DHT22;6200;48.144;11.424;2023-03-01T04:25:09;2.30;99.90
12276;DHT22;6200;48.144;11.424;2023-03-01T04:27:35;2.30;99.90
12276;DHT22;6200;48.144;11.424;2023-03-01T04:30:02;3.20;99.90
12276;DHT22;6200;48.144;11.424;2023-03-01T04:32:28;2.20;99.90
12276;DHT22;6200;48.144;11.424;2023-03-01T04:34:54;2.10;99.90
12276;DHT22;6200;48.144;11.424;2023-03-01T04:37:19;2.20;99.90
12276;DHT22;6200;48.144;11.424;2023-03-01T04:39:45;2.10;99.90
12276;DHT22;6200;48.144;11.424;2023-03-01T04:42:11;2.00;99.90
12276;DHT22;6200;48.144;11.424;2023-03-01T04:44:37;2.10;99.90
12276;DHT22;6200;48.144;11.424;2023-03-01T04:47:02;2.00;99.90
12276;DHT22;6200;48.144;11.424;2023-03-01T04:49:28;2.00;99.90
12276;DHT22;6200;48.144;11.424;2023-03-01T04:51:53;2.00;99.90
12276;DHT22;6200;48.144;11.424;2023-03-01T04:54:19;2.10;99.90
12276;DHT22;6200;48.144;11.424;2023-03-01T04:56:44;2.00;99.90
12276;DHT22;6200;48.144;11.424;2023-03-01T04:59:10;2.10;99.90
12276;DHT22;6200;48.144;11.424;2023-03-01T05:01:38;2.00;99.90
12276;DHT22;6200;48.144;11.424;2023-03-01T05:04:03;2.00;99.90
12276;DHT22;6200;48.144;11.424;2023-03-01T05:06:30;2.10;99.90
12276;DHT22;6200;48.144;11.424;2023-03-01T05:08:56;2.00;99.90
12276;DHT22;6200;48.144;11.424;2023-03-01T05:11:22;2.00;99.90
12276;DHT22;6200;48.144;11.424;2023-03-01T05:13:47;2.10;99.90
12276;DHT22;6200;48.144;11.424;2023-03-01T05:16:15;2.00;99.90
12276;DHT22;6200;48.144;11.424;2023-03-01T05:18:42;2.00;99.90
12276;DHT22;6200;48.144;11.424;2023-03-01T05:21:13;2.10;99.90
12276;DHT22;6200;48.144;11.424;2023-03-01T05:23:41;2.10;99.90
12276;DHT22;6200;48.144;11.424;2023-03-01T05:26:07;2.00;99.90
12276;DHT22;6200;48.144;11.424;2023-03-01T05:28:33;2.10;99.90
12276;DHT22;6200;48.144;11.424;2023-03-01T05:30:58;2.10;99.90
12276;DHT22;6200;48.144;11.424;2023-03-01T05:33:25;2.10;99.90
12276;DHT22;6200;48.144;11.424;2023-03-01T05:35:51;1.90;99.90
12276;DHT22;6200;48.144;11.424;2023-03-01T05:38:20;1.90;99.90
12276;DHT22;6200;48.144;11.424;2023-03-01T05:40:47;1.80;99.90
12276;DHT22;6200;48.144;11.424;2023-03-01T05:43:14;1.70;99.90
12276;DHT22;6200;48.144;11.424;2023-03-01T05:45:41;1.70;99.90
12276;DHT22;6200;48.144;11.424;2023-03-01T05:48:07;1.60;99.90
12276;DHT22;6200;48.144;11.424;2023-03-01T05:50:39;1.60;99.90
12276;DHT22;6200;48.144;11.424;2023-03-01T05:53:17;1.70;99.90
12276;DHT22;6200;48.144;11.424;2023-03-01T05:55:43;1.60;99.90
12276;DHT22;6200;48.144;11.424;2023-03-01T05:58:11;1.50;99.90
12276;DHT22;6200;48.144;11.424;2023-03-01T06:00:39;1.50;99.90
12276;DHT22;6200;48.144;11.424;2023-03-01T06:03:05;1.50;99.90
12276;DHT22;6200;48.144;11.424;2023-03-01T06:05:31;1.50;99.90
12276;DHT22;6200;48.144;11.424;2023-03-01T06:07:59;1.40;99.90
12276;DHT22;6200;48.144;11.424;2023-03-01T06:10:25;1.50;99.90
12276;DHT22;6200;48.144;11.424;2023-03-01T06:12:50;1.40;99.90
12276;DHT22;6200;48.144;11.424;2023-03-01T06:15:16;1.60;99.90
12276;DHT22;6200;48.144;11.424;2023-03-01T06:17:43;1.40;99.90
12276;DHT22;6200;48.144;11.424;2023-03-01T06:20:15;1.50;99.90
12276;DHT22;6200;48.144;11.424;2023-03-01T06:22:41;1.50;99.90
12276;DHT22;6200;48.144;11.424;2023-03-01T06:25:08;1.50;99.90
12276;DHT22;6200;48.144;11.424;2023-03-01T06:27:34;1.40;99.90
12276;DHT22;6200;48.144;11.424;2023-03-01T06:29:59;1.40;99.90
12276;DHT22;6200;48.144;11.424;2023-03-01T06:32:25;1.40;99.90
12276;DHT22;6200;48.144;11.424;2023-03-01T06:34:50;1.50;99.90
12276;DHT22;6200;48.144;11.424;2023-03-01T06:37:16;1.40;99.90
12276;DHT22;6200;48.144;11.424;2023-03-01T06:39:42;1.40;99.90
12276;DHT22;6200;48.144;11.424;2023-03-01T06:42:08;1.40;99.90
12276;DHT22;6200;48.144;11.424;2023-03-01T06:44:35;1.40;99.90
12276;DHT22;6200;48.144;11.424;2023-03-01T06:47:01;1.50;99.90
12276;DHT22;6200;48.144;11.424;2023-03-01T06:49:27;1.50;99.90
12276;DHT22;6200;48.144;11.424;2023-03-01T06:51:52;1.40;99.90
12276;DHT22;6200;48.144;11.424;2023-03-01T06:54:18;1.40;99.90
12276;DHT22;6200;48.144;11.424;2023-03-01T06:56:46;1.40;99.90
12276;DHT22;6200;48.144;11.424;2023-03-01T06:59:12;1.40;99.90
12276;DHT22;6200;48.144;11.424;2023-03-01T07:01:37;1.40;99.90
12276;DHT22;6200;48.144;11.424;2023-03-01T07:04:04;1.60;99.90
12276;DHT22;6200;48.144;11.424;2023-03-01T07:06:29;1.50;99.90
12276;DHT22;6200;48.144;11.424;2023-03-01T07:08:55;1.50;99.90
12276;DHT22;6200;48.144;11.424;2023-03-01T07:11:20;1.50;99.90
12276;DHT22;6200;48.144;11.424;2023-03-01T07:13:46;1.60;99.90
12276;DHT22;6200;48.144;11.424;2023-03-01T07:16:11;1.50;99.90
12276;DHT22;6200;48.144;11.424;2023-03-01T07:18:37;1.50;99.90
12276;DHT22;6200;48.144;11.424;2023-03-01T07:21:09;1.60;99.90
12276;DHT22;6200;48.144;11.424;2023-03-01T07:23:36;1.60;99.90
12276;DHT22;6200;48.144;11.424;2023-03-01T07:26:02;1.60;99.90
12276;DHT22;6200;48.144;11.424;2023-03-01T07:28:27;1.60;99.90
12276;DHT22;6200;48.144;11.424;2023-03-01T07:30:54;1.60;99.90
12276;DHT22;6200;48.144;11.424;2023-03-01T07:33:19;1.60;99.90
12276;DHT22;6200;48.144;11.424;2023-03-01T07:35:45;1.60;99.90
12276;DHT22;6200;48.144;11.424;2023-03-01T07:38:11;1.70;99.90
12276;DHT22;6200;48.144;11.424;2023-03-01T07:40:36;1.90;99.90
12276;DHT22;6200;48.144;11.424;2023-03-01T07:43:02;1.70;99.90
12276;DHT22;6200;48.144;11.424;2023-03-01T07:45:28;1.90;99.90
12276;DHT22;6200;48.144;11.424;2023-03-01T07:47:55;1.80;99.90
12276;DHT22;6200;48.144;11.424;2023-03-01T07:50:21;1.90;99.90
12276;DHT22;6200;48.144;11.424;2023-03-01T07:52:48;1.80;99.90
12276;DHT22;6200;48.144;11.424;2023-03-01T07:55:14;1.90;99.90
12276;DHT22;6200;48.144;11.424;2023-03-01T07:57:40;1.80;99.90
12276;DHT22;6200;48.144;11.424;2023-03-01T08:00:06;1.80;99.90
12276;DHT22;6200;48.144;11.424;2023-03-01T08:02:32;1.80;99.90
12276;DHT22;6200;48.144;11.424;2023-03-01T08:04:57;1.80;99.90
12276;DHT22;6200;48.144;11.424;2023-03-01T08:07:23;1.80;99.90
12276;DHT22;6200;48.144;11.424;2023-03-01T08:09:48;1.90;99.90
12276;DHT22;6200;48.144;11.424;2023-03-01T08:12:14;1.90;99.90
12276;DHT22;6200;48.144;11.424;2023-03-01T08:14:41;1.80;99.90
12276;DHT22;6200;48.144;11.424;2023-03-01T08:17:07;1.80;99.90
12276;DHT22;6200;48.144;11.424;2023-03-01T08:19:32;1.80;99.90
12276;DHT22;6200;48.144;11.424;2023-03-01T08:22:02;1.80;99.90
12276;DHT22;6200;48.144;11.424;2023-03-01T08:24:28;1.80;99.90
12276;DHT22;6200;48.144;11.424;2023-03-01T08:26:54;1.90;99.90
12276;DHT22;6200;48.144;11.424;2023-03-01T08:29:20;1.90;99.90
12276;DHT22;6200;48.144;11.424;2023-03-01T08:31:46;1.90;99.90
12276;DHT22;6200;48.144;11.424;2023-03-01T08:34:14;1.90;99.90
12276;DHT22;6200;48.144;11.424;2023-03-01T08:36:41;2.00;99.90
12276;DHT22;6200;48.144;11.424;2023-03-01T08:39:08;2.00;99.90
12276;DHT22;6200;48.144;11.424;2023-03-01T08:41:34;2.10;99.90
12276;DHT22;6200;48.144;11.424;2023-03-01T08:44:00;2.10;99.90
12276;DHT22;6200;48.144;11.424;2023-03-01T08:46:30;2.10;99.90
12276;DHT22;6200;48.144;11.424;2023-03-01T08:48:56;2.10;99.90
12276;DHT22;6200;48.144;11.424;2023-03-01T08:51:22;2.10;99.90
12276;DHT22;6200;48.144;11.424;2023-03-01T08:53:48;2.20;99.90
12276;DHT22;6200;48.144;11.424;2023-03-01T08:56:15;2.20;99.90
12276;DHT22;6200;48.144;11.424;2023-03-01T08:58:44;2.20;99.90
12276;DHT22;6200;48.144;11.424;2023-03-01T09:01:12;4.80;99.90
12276;DHT22;6200;48.144;11.424;2023-03-01T09:03:38;2.30;99.90
12276;DHT22;6200;48.144;11.424;2023-03-01T09:06:05;2.30;99.90
12276;DHT22;6200;48.144;11.424;2023-03-01T09:08:33;2.40;99.90
12276;DHT22;6200;48.144;11.424;2023-03-01T09:11:01;2.40;99.90
12276;DHT22;6200;48.144;11.424;2023-03-01T09:13:27;2.50;99.90
12276;DHT22;6200;48.144;11.424;2023-03-01T09:15:56;2.50;99.90
12276;DHT22;6200;48.144;11.424;2023-03-01T09:18:22;2.60;99.90
12276;DHT22;6200;48.144;11.424;2023-03-01T09:20:47;2.50;99.90
12276;DHT22;6200;48.144;11.424;2023-03-01T09:23:13;2.60;99.90
12276;DHT22;6200;48.144;11.424;2023-03-01T09:25:38;2.60;99.90
12276;DHT22;6200;48.144;11.424;2023-03-01T09:28:04;2.60;99.90
12276;DHT22;6200;48.144;11.424;2023-03-01T09:30:29;2.60;99.90
12276;DHT22;6200;48.144;11.424;2023-03-01T09:32:56;2.60;99.90
12276;DHT22;6200;48.144;11.424;2023-03-01T09:35:22;2.60;99.90
12276;DHT22;6200;48.144;11.424;2023-03-01T09:37:48;2.70;99.90
12276;DHT22;6200;48.144;11.424;2023-03-01T09:40:18;2.70;99.90
12276;DHT22;6200;48.144;11.424;2023-03-01T09:43:06;2.70;99.90
12276;DHT22;6200;48.144;11.424;2023-03-01T09:45:39;2.70;99.90
12276;DHT22;6200;48.144;11.424;2023-03-01T09:48:12;2.70;99.90
12276;DHT22;6200;48.144;11.424;2023-03-01T09:50:42;2.70;99.90
12276;DHT22;6200;48.144;11.424;2023-03-01T09:53:42;2.80;99.90
12276;DHT22;6200;48.144;11.424;2023-03-01T09:58:41;2.90;99.90
12276;DHT22;6200;48.144;11.424;2023-03-01T10:04:37;2.90;99.90
12276;DHT22;6200;48.144;11.424;2023-03-01T10:07:11;3.00;99.90
12276;DHT22;6200;48.144;11.424;2023-03-01T10:09:42;3.00;99.90
12276;DHT22;6200;48.144;11.424;2023-03-01T10:12:25;3.00;99.90
12276;DHT22;6200;48.144;11.424;2023-03-01T10:15:25;3.00;99.90
12276;DHT22;6200;48.144;11.424;2023-03-01T10:17:56;3.10;99.90
12276;DHT22;6200;48.144;11.424;2023-03-01T10:22:50;3.20;99.90
12276;DHT22;6200;48.144;11.424;2023-03-01T10:25:29;3.20;99.90
12276;DHT22;6200;48.144;11.424;2023-03-01T10:29:05;3.20;99.90
12276;DHT22;6200;48.144;11.424;2023-03-01T10:31:04;3.20;99.90
12276;DHT22;6200;48.144;11.424;2023-03-01T10:33:32;3.20;99.90
12276;DHT22;6200;48.144;11.424;2023-03-01T10:35:58;3.20;99.90
12276;DHT22;6200;48.144;11.424;2023-03-01T10:38:23;3.30;99.90
12276;DHT22;6200;48.144;11.424;2023-03-01T10:40:54;3.20;99.90
12276;DHT22;6200;48.144;11.424;2023-03-01T10:43:24;3.30;99.90
12276;DHT22;6200;48.144;11.424;2023-03-01T10:45:50;3.30;99.90
12276;DHT22;6200;48.144;11.424;2023-03-01T10:48:24;5.80;99.90
12276;DHT22;6200;48.144;11.424;2023-03-01T10:53:38;3.40;99.90
12276;DHT22;6200;48.144;11.424;2023-03-01T10:56:08;3.60;99.90
12276;DHT22;6200;48.144;11.424;2023-03-01T10:58:35;3.80;99.70
12276;DHT22;6200;48.144;11.424;2023-03-01T11:01:24;4.00;99.40
12276;DHT22;6200;48.144;11.424;2023-03-01T11:06:30;4.40;98.80
12276;DHT22;6200;48.144;11.424;2023-03-01T11:08:56;4.60;98.40
12276;DHT22;6200;48.144;11.424;2023-03-01T11:13:59;5.00;97.80
12276;DHT22;6200;48.144;11.424;2023-03-01T11:16:29;5.10;97.30
12276;DHT22;6200;48.144;11.424;2023-03-01T11:19:33;5.20;97.10
12276;DHT22;6200;48.144;11.424;2023-03-01T11:22:12;5.30;96.70
12276;DHT22;6200;48.144;11.424;2023-03-01T11:24:42;5.50;96.50
12276;DHT22;6200;48.144;11.424;2023-03-01T11:27:20;5.60;96.50
12276;DHT22;6200;48.144;11.424;2023-03-01T11:32:34;6.00;96.20
12276;DHT22;6200;48.144;11.424;2023-03-01T11:35:14;6.10;96.00
12276;DHT22;6200;48.144;11.424;2023-03-01T11:46:11;6.20;95.10
12276;DHT22;6200;48.144;11.424;2023-03-01T11:48:57;6.30;95.10
12276;DHT22;6200;48.144;11.424;2023-03-01T11:54:35;6.40;94.80
12276;DHT22;6200;48.144;11.424;2023-03-01T12:13:23;6.60;94.30
12276;DHT22;6200;48.144;11.424;2023-03-01T12:16:10;6.70;94.60
12276;DHT22;6200;48.144;11.424;2023-03-01T12:21:35;6.80;94.20
12276;DHT22;6200;48.144;11.424;2023-03-01T12:24:28;6.80;94.20
12276;DHT22;6200;48.144;11.424;2023-03-01T12:32:46;7.10;94.10
12276;DHT22;6200;48.144;11.424;2023-03-01T12:41:25;7.30;93.50
12276;DHT22;6200;48.144;11.424;2023-03-01T12:44:13;7.30;93.40
12276;DHT22;6200;48.144;11.424;2023-03-01T12:49:35;7.20;93.50
12276;DHT22;6200;48.144;11.424;2023-03-01T12:54:38;7.10;94.00
12276;DHT22;6200;48.144;11.424;2023-03-01T12:57:15;7.10;94.40
12276;DHT22;6200;48.144;11.424;2023-03-01T13:02:36;7.00;94.00
12276;DHT22;6200;48.144;11.424;2023-03-01T13:05:29;6.80;93.90
12276;DHT22;6200;48.144;11.424;2023-03-01T13:08:14;6.80;94.30
12276;DHT22;6200;48.144;11.424;2023-03-01T13:10:52;5.90;94.30
12276;DHT22;6200;48.144;11.424;2023-03-01T13:13:23;6.90;94.80
12276;DHT22;6200;48.144;11.424;2023-03-01T13:15:49;7.00;94.50
12276;DHT22;6200;48.144;11.424;2023-03-01T13:23:09;7.30;93.80
12276;DHT22;6200;48.144;11.424;2023-03-01T13:28:40;7.30;93.80
12276;DHT22;6200;48.144;11.424;2023-03-01T13:31:11;7.30;93.90
12276;DHT22;6200;48.144;11.424;2023-03-01T13:33:52;7.40;93.80
12276;DHT22;6200;48.144;11.424;2023-03-01T13:38:59;7.40;93.50
12276;DHT22;6200;48.144;11.424;2023-03-01T13:44:21;7.30;93.60
12276;DHT22;6200;48.144;11.424;2023-03-01T13:46:56;7.30;93.80
12276;DHT22;6200;48.144;11.424;2023-03-01T13:49:23;7.30;93.90
12276;DHT22;6200;48.144;11.424;2023-03-01T13:51:50;7.30;94.00
12276;DHT22;6200;48.144;11.424;2023-03-01T13:54:25;7.30;93.90
12276;DHT22;6200;48.144;11.424;2023-03-01T13:56:52;7.20;94.10
12276;DHT22;6200;48.144;11.424;2023-03-01T13:59:21;7.20;94.40
12276;DHT22;6200;48.144;11.424;2023-03-01T14:01:55;7.20;94.50
12276;DHT22;6200;48.144;11.424;2023-03-01T14:04:29;7.20;94.50
12276;DHT22;6200;48.144;11.424;2023-03-01T14:07:29;7.20;94.50
12276;DHT22;6200;48.144;11.424;2023-03-01T14:09:58;7.20;94.60
12276;DHT22;6200;48.144;11.424;2023-03-01T14:12:48;7.20;94.80
12276;DHT22;6200;48.144;11.424;2023-03-01T14:15:31;7.20;94.60
12276;DHT22;6200;48.144;11.424;2023-03-01T14:18:13;7.20;94.50
12276;DHT22;6200;48.144;11.424;2023-03-01T14:20:42;7.20;94.60
12276;DHT22;6200;48.144;11.424;2023-03-01T14:23:18;7.20;94.50
12276;DHT22;6200;48.144;11.424;2023-03-01T14:26:03;7.20;94.50
12276;DHT22;6200;48.144;11.424;2023-03-01T14:28:31;7.20;94.40
12276;DHT22;6200;48.144;11.424;2023-03-01T14:31:00;7.20;94.40
12276;DHT22;6200;48.144;11.424;2023-03-01T14:33:27;7.20;94.60
12276;DHT22;6200;48.144;11.424;2023-03-01T14:35:59;7.20;94.60
12276;DHT22;6200;48.144;11.424;2023-03-01T14:38:39;7.20;94.70
12276;DHT22;6200;48.144;11.424;2023-03-01T14:41:22;7.20;94.80
12276;DHT22;6200;48.144;11.424;2023-03-01T14:46:37;7.20;95.00
12276;DHT22;6200;48.144;11.424;2023-03-01T14:51:39;7.10;95.10
12276;DHT22;6200;48.144;11.424;2023-03-01T14:54:40;7.00;95.20
12276;DHT22;6200;48.144;11.424;2023-03-01T14:57:04;7.00;95.20
12276;DHT22;6200;48.144;11.424;2023-03-01T14:59:29;7.00;95.30
12276;DHT22;6200;48.144;11.424;2023-03-01T15:01:57;7.00;95.50
12276;DHT22;6200;48.144;11.424;2023-03-01T15:04:23;7.00;95.60
12276;DHT22;6200;48.144;11.424;2023-03-01T15:06:52;7.00;95.70
12276;DHT22;6200;48.144;11.424;2023-03-01T15:09:18;7.00;95.80
12276;DHT22;6200;48.144;11.424;2023-03-01T15:11:44;7.10;95.60
12276;DHT22;6200;48.144;11.424;2023-03-01T15:14:42;7.10;95.70
12276;DHT22;6200;48.144;11.424;2023-03-01T15:17:33;7.10;95.70
12276;DHT22;6200;48.144;11.424;2023-03-01T15:20:02;7.10;95.80
12276;DHT22;6200;48.144;11.424;2023-03-01T15:22:29;7.10;95.80
12276;DHT22;6200;48.144;11.424;2023-03-01T15:24:55;7.10;95.70
12276;DHT22;6200;48.144;11.424;2023-03-01T15:27:23;7.10;95.80
12276;DHT22;6200;48.144;11.424;2023-03-01T15:29:51;7.10;95.80
12276;DHT22;6200;48.144;11.424;2023-03-01T15:32:36;7.10;95.90
12276;DHT22;6200;48.144;11.424;2023-03-01T15:35:33;7.10;96.00
12276;DHT22;6200;48.144;11.424;2023-03-01T15:38:00;7.10;96.20
12276;DHT22;6200;48.144;11.424;2023-03-01T15:40:30;7.10;96.20
12276;DHT22;6200;48.144;11.424;2023-03-01T15:43:03;7.10;96.20
12276;DHT22;6200;48.144;11.424;2023-03-01T15:45:30;7.10;96.40
12276;DHT22;6200;48.144;11.424;2023-03-01T15:48:02;7.00;96.30
12276;DHT22;6200;48.144;11.424;2023-03-01T15:50:33;7.00;96.50
12276;DHT22;6200;48.144;11.424;2023-03-01T15:53:00;7.00;96.50
12276;DHT22;6200;48.144;11.424;2023-03-01T15:55:28;7.00;96.60
12276;DHT22;6200;48.144;11.424;2023-03-01T16:00:28;7.00;96.90
12276;DHT22;6200;48.144;11.424;2023-03-01T16:02:54;7.00;96.90
12276;DHT22;6200;48.144;11.424;2023-03-01T16:05:27;7.00;97.00
12276;DHT22;6200;48.144;11.424;2023-03-01T16:07:53;7.00;97.10
12276;DHT22;6200;48.144;11.424;2023-03-01T16:10:20;7.00;97.40
12276;DHT22;6200;48.144;11.424;2023-03-01T16:12:46;7.00;97.20
12276;DHT22;6200;48.144;11.424;2023-03-01T16:15:22;6.00;97.00
12276;DHT22;6200;48.144;11.424;2023-03-01T16:17:48;7.00;97.30
12276;DHT22;6200;48.144;11.424;2023-03-01T16:20:14;7.00;97.30
12276;DHT22;6200;48.144;11.424;2023-03-01T16:22:43;6.90;97.40
12276;DHT22;6200;48.144;11.424;2023-03-01T16:25:14;6.90;97.40
12276;DHT22;6200;48.144;11.424;2023-03-01T16:27:44;6.90;97.60
12276;DHT22;6200;48.144;11.424;2023-03-01T16:30:11;6.90;97.70
12276;DHT22;6200;48.144;11.424;2023-03-01T16:32:38;6.90;97.70
12276;DHT22;6200;48.144;11.424;2023-03-01T16:35:05;6.90;97.80
12276;DHT22;6200;48.144;11.424;2023-03-01T16:37:32;6.90;97.90
12276;DHT22;6200;48.144;11.424;2023-03-01T16:39:58;6.90;97.90
12276;DHT22;6200;48.144;11.424;2023-03-01T16:42:23;6.80;97.80
12276;DHT22;6200;48.144;11.424;2023-03-01T16:44:54;6.90;98.00
12276;DHT22;6200;48.144;11.424;2023-03-01T16:47:20;6.80;98.20
12276;DHT22;6200;48.144;11.424;2023-03-01T16:49:46;6.90;98.40
12276;DHT22;6200;48.144;11.424;2023-03-01T16:52:11;6.90;98.40
12276;DHT22;6200;48.144;11.424;2023-03-01T16:54:37;6.80;98.30
12276;DHT22;6200;48.144;11.424;2023-03-01T16:57:02;6.80;98.40
12276;DHT22;6200;48.144;11.424;2023-03-01T16:59:28;6.80;98.40
12276;DHT22;6200;48.144;11.424;2023-03-01T17:01:53;6.70;98.50
12276;DHT22;6200;48.144;11.424;2023-03-01T17:04:19;6.70;98.60
12276;DHT22;6200;48.144;11.424;2023-03-01T17:06:44;6.70;98.50
12276;DHT22;6200;48.144;11.424;2023-03-01T17:09:12;6.70;98.70
12276;DHT22;6200;48.144;11.424;2023-03-01T17:11:37;6.60;98.80
12276;DHT22;6200;48.144;11.424;2023-03-01T17:14:03;6.60;98.90
12276;DHT22;6200;48.144;11.424;2023-03-01T17:16:29;6.60;99.00
12276;DHT22;6200;48.144;11.424;2023-03-01T17:18:54;6.50;99.10
12276;DHT22;6200;48.144;11.424;2023-03-01T17:21:20;6.50;99.10
12276;DHT22;6200;48.144;11.424;2023-03-01T17:23:46;6.50;99.20
12276;DHT22;6200;48.144;11.424;2023-03-01T17:26:12;6.40;99.20
12276;DHT22;6200;48.144;11.424;2023-03-01T17:28:38;6.40;99.30
12276;DHT22;6200;48.144;11.424;2023-03-01T17:31:05;6.40;99.40
12276;DHT22;6200;48.144;11.424;2023-03-01T17:33:31;6.30;99.50
12276;DHT22;6200;48.144;11.424;2023-03-01T17:35:58;6.30;99.60
12276;DHT22;6200;48.144;11.424;2023-03-01T17:38:24;6.20;99.50